createdAt,value
2018-11-14T00:02:19.847Z,6.35
2018-11-14T00:07:22.255Z,6.32
2018-11-14T00:12:40.009Z,6.30
2018-11-14T00:17:43.258Z,6.26
2018-11-14T00:22:46.438Z,6.21
2018-11-14T00:27:48.761Z,6.28
2018-11-14T00:32:51.062Z,6.28
2018-11-14T00:37:53.402Z,6.14
2018-11-14T00:42:55.654Z,6.09
2018-11-14T00:47:57.910Z,6.13
2018-11-14T00:53:00.161Z,6.18
2018-11-14T00:58:02.427Z,6.26
2018-11-14T01:03:04.890Z,6.26
2018-11-14T01:08:07.222Z,6.20
2018-11-14T01:13:09.543Z,6.09
2018-11-14T01:18:11.769Z,6.18
2018-11-14T01:23:14.028Z,6.30
2018-11-14T01:28:16.368Z,6.23
2018-11-14T01:33:18.641Z,6.04
2018-11-14T01:38:20.888Z,5.97
2018-11-14T01:43:23.125Z,5.89
2018-11-14T01:48:25.409Z,5.88
2018-11-14T01:53:27.658Z,5.84
2018-11-14T01:58:29.981Z,5.86
2018-11-14T02:03:32.374Z,5.90
2018-11-14T02:08:34.654Z,6.03
2018-11-14T02:13:36.935Z,6.08
2018-11-14T02:18:39.195Z,5.99
2018-11-14T02:23:41.430Z,5.88
2018-11-14T02:28:43.670Z,5.80
2018-11-14T02:33:45.966Z,5.71
2018-11-14T02:38:48.211Z,5.66
2018-11-14T02:43:50.542Z,5.57
2018-11-14T02:48:52.808Z,5.47
2018-11-14T02:53:55.237Z,5.36
2018-11-14T02:58:57.519Z,5.22
2018-11-14T03:03:59.950Z,5.19
2018-11-14T03:09:02.277Z,5.13
2018-11-14T03:14:05.003Z,5.10
2018-11-14T03:19:07.272Z,5.03
2018-11-14T03:24:09.572Z,5.03
2018-11-14T03:29:11.815Z,5.01
2018-11-14T03:34:14.156Z,5.00
2018-11-14T03:39:16.416Z,4.95
2018-11-14T03:44:18.675Z,4.88
2018-11-14T03:49:20.932Z,4.86
2018-11-14T03:54:23.200Z,4.83
2018-11-14T03:59:25.452Z,4.86
2018-11-14T04:04:27.777Z,4.82
2018-11-14T04:09:30.213Z,4.81
2018-11-14T04:14:32.426Z,4.74
2018-11-14T04:19:35.198Z,4.77
2018-11-14T04:24:37.688Z,4.69
2018-11-14T04:29:39.973Z,4.63
2018-11-14T04:34:42.316Z,4.55
2018-11-14T04:39:44.720Z,4.55
2018-11-14T04:44:47.387Z,4.57
2018-11-14T04:49:49.743Z,4.52
2018-11-14T04:54:52.080Z,4.52
2018-11-14T04:59:54.375Z,4.51
2018-11-14T05:04:56.755Z,4.47
2018-11-14T05:09:59.171Z,4.43
2018-11-14T05:15:01.455Z,4.38
2018-11-14T05:20:03.893Z,4.28
2018-11-14T05:25:06.460Z,4.19
2018-11-14T05:30:10.525Z,4.13
2018-11-14T05:35:13.326Z,4.08
2018-11-14T05:40:22.674Z,4.04
2018-11-14T05:45:26.115Z,4.00
2018-11-14T05:50:28.430Z,3.99
2018-11-14T05:55:30.730Z,3.93
2018-11-14T06:00:33.131Z,3.91
2018-11-14T06:05:35.488Z,3.88
2018-11-14T06:10:37.820Z,3.77
2018-11-14T06:15:40.120Z,3.74
2018-11-14T06:20:43.493Z,3.69
2018-11-14T06:25:45.792Z,3.64
2018-11-14T06:30:48.093Z,3.63
2018-11-14T06:35:50.448Z,3.61
2018-11-14T06:40:52.839Z,3.59
2018-11-14T06:45:55.164Z,3.58
2018-11-14T06:50:57.483Z,3.59
2018-11-14T06:55:59.779Z,3.61
2018-11-14T07:01:02.093Z,3.68
2018-11-14T07:06:04.820Z,3.75
2018-11-14T07:11:07.092Z,3.77
2018-11-14T07:16:09.308Z,3.81
2018-11-14T07:21:11.607Z,3.87
2018-11-14T07:26:13.964Z,3.86
2018-11-14T07:31:16.332Z,3.99
2018-11-14T07:36:18.673Z,4.11
2018-11-14T07:41:23.284Z,4.27
2018-11-14T07:46:26.801Z,4.30
2018-11-14T07:51:29.304Z,4.39
2018-11-14T07:56:31.609Z,4.47
2018-11-14T08:01:33.898Z,4.51
2018-11-14T08:06:36.296Z,4.69
2018-11-14T08:11:38.594Z,4.77
2018-11-14T08:16:40.904Z,4.89
2018-11-14T08:21:43.206Z,4.97
2018-11-14T08:26:45.504Z,5.29
2018-11-14T08:31:47.824Z,5.34
2018-11-14T08:36:50.186Z,5.52
2018-11-14T08:41:52.528Z,5.66
2018-11-14T08:46:54.820Z,5.89
2018-11-14T08:51:57.391Z,6.10
2018-11-14T08:56:59.722Z,6.30
2018-11-14T09:02:02.152Z,6.48
2018-11-14T09:07:05.238Z,6.64
2018-11-14T09:12:08.220Z,6.74
2018-11-14T09:17:10.520Z,7.02
2018-11-14T09:22:12.800Z,7.38
2018-11-14T09:27:15.088Z,7.55
2018-11-14T09:32:17.606Z,7.64
2018-11-14T09:37:19.924Z,7.78
2018-11-14T09:42:22.211Z,7.73
2018-11-14T09:47:24.583Z,7.82
2018-11-14T09:52:26.964Z,8.06
2018-11-14T09:57:29.243Z,8.20
2018-11-14T10:02:31.608Z,8.31
2018-11-14T10:07:34.124Z,8.40
2018-11-14T10:12:37.707Z,8.41
2018-11-14T10:17:40.511Z,8.68
2018-11-14T10:22:43.319Z,8.80
2018-11-14T10:27:46.322Z,8.93
2018-11-14T10:32:49.224Z,8.96
2018-11-14T10:37:51.557Z,9.08
2018-11-14T10:42:53.892Z,9.19
2018-11-14T10:47:56.180Z,9.30
2018-11-14T10:52:59.437Z,9.37
2018-11-14T10:58:01.724Z,9.61
2018-11-14T11:03:09.699Z,9.71
2018-11-14T11:08:18.977Z,9.63
2018-11-14T11:13:27.059Z,9.78
2018-11-14T11:18:33.790Z,9.98
2018-11-14T11:23:36.174Z,10.16
2018-11-14T11:28:38.560Z,10.26
2018-11-14T11:33:40.903Z,10.30
2018-11-14T11:38:43.242Z,10.53
2018-11-14T11:43:45.551Z,10.50
2018-11-14T11:48:47.908Z,10.54
2018-11-14T11:53:50.210Z,10.59
2018-11-14T11:58:52.527Z,10.57
2018-11-14T12:03:54.861Z,10.61
2018-11-14T12:08:57.233Z,10.64
2018-11-14T12:13:59.538Z,10.77
2018-11-14T12:19:01.910Z,10.99
2018-11-14T12:24:04.362Z,11.18
2018-11-14T12:29:06.666Z,11.14
2018-11-14T12:34:08.979Z,11.06
2018-11-14T12:39:11.280Z,11.37
2018-11-14T12:44:13.573Z,11.61
2018-11-14T12:49:15.932Z,11.76
2018-11-14T12:54:18.219Z,11.84
2018-11-14T12:59:20.571Z,12.30
2018-11-14T13:04:22.836Z,12.19
2018-11-14T13:09:25.232Z,11.99
2018-11-14T13:14:27.541Z,12.99
2018-11-14T13:19:29.883Z,12.73
2018-11-14T13:24:32.193Z,13.05
2018-11-14T13:29:34.565Z,13.25
2018-11-14T13:34:36.929Z,13.33
2018-11-14T13:39:39.515Z,13.26
2018-11-14T13:44:41.802Z,13.09
2018-11-14T13:49:44.357Z,13.38
2018-11-14T13:54:46.536Z,14.20
2018-11-14T13:59:49.016Z,14.09
2018-11-14T14:04:51.330Z,13.53
2018-11-14T14:09:53.693Z,13.28
2018-11-14T14:14:55.992Z,13.06
2018-11-14T14:19:58.281Z,13.37
2018-11-14T14:25:00.558Z,13.27
2018-11-14T14:30:03.011Z,13.27
2018-11-14T14:35:06.195Z,13.04
2018-11-14T14:40:13.462Z,13.04
2018-11-14T14:45:18.250Z,12.83
2018-11-14T14:50:20.880Z,12.73
2018-11-14T14:55:24.263Z,12.38
2018-11-14T15:00:27.562Z,12.21
2018-11-14T15:05:29.859Z,12.18
2018-11-14T15:10:32.245Z,11.91
2018-11-14T15:15:34.635Z,11.71
2018-11-14T15:20:36.971Z,11.43
2018-11-14T15:25:39.321Z,11.26
2018-11-14T15:30:41.660Z,11.04
2018-11-14T15:35:44.055Z,10.76
2018-11-14T15:40:46.711Z,10.61
2018-11-14T15:45:48.995Z,10.48
2018-11-14T15:50:51.313Z,10.26
2018-11-14T15:55:53.600Z,9.85
2018-11-14T16:00:55.911Z,9.48
2018-11-14T16:05:59.279Z,9.32
2018-11-14T16:11:01.762Z,9.08
2018-11-14T16:16:04.181Z,8.96
2018-11-14T16:21:07.401Z,8.76
2018-11-14T16:26:10.714Z,8.60
2018-11-14T16:31:13.427Z,8.54
2018-11-14T16:36:15.724Z,8.41
2018-11-14T16:41:18.278Z,8.33
2018-11-14T16:46:20.624Z,8.26
2018-11-14T16:51:22.964Z,8.17
2018-11-14T16:56:25.396Z,8.03
2018-11-14T17:01:27.809Z,7.87
2018-11-14T17:06:30.546Z,7.80
2018-11-14T17:11:33.428Z,7.64
2018-11-14T17:16:36.653Z,7.58
2018-11-14T17:21:39.980Z,7.49
2018-11-14T17:26:42.628Z,7.44
2018-11-14T17:31:45.093Z,7.37
2018-11-14T17:36:47.536Z,7.26
2018-11-14T17:41:49.970Z,7.21
2018-11-14T17:46:52.304Z,7.17
2018-11-14T17:51:54.709Z,7.07
2018-11-14T17:56:57.290Z,6.96
2018-11-14T18:01:59.682Z,6.93
2018-11-14T18:07:02.266Z,6.79
2018-11-14T18:12:05.029Z,6.72
2018-11-14T18:17:07.458Z,6.66
2018-11-14T18:22:10.031Z,6.59
2018-11-14T18:27:12.417Z,6.50
2018-11-14T18:32:14.847Z,6.45
2018-11-14T18:37:17.148Z,6.36
2018-11-14T18:42:19.589Z,6.27
2018-11-14T18:47:21.972Z,6.15
2018-11-14T18:52:25.727Z,6.11
2018-11-14T18:57:28.517Z,6.03
2018-11-14T19:02:31.219Z,5.98
2018-11-14T19:07:37.064Z,5.91
2018-11-14T19:12:39.948Z,5.86
2018-11-14T19:17:42.249Z,5.82
2018-11-14T19:22:44.871Z,5.75
2018-11-14T19:27:48.135Z,5.59
2018-11-14T19:32:51.301Z,5.56
2018-11-14T19:37:54.421Z,5.48
2018-11-14T19:42:57.992Z,5.44
2018-11-14T19:48:00.272Z,5.42
2018-11-14T19:53:02.912Z,5.41
2018-11-14T19:58:05.855Z,5.37
2018-11-14T20:03:08.719Z,5.31
2018-11-14T20:08:11.027Z,5.23
2018-11-14T20:13:13.405Z,5.18
2018-11-14T20:18:15.680Z,5.10
2018-11-14T20:23:18.284Z,5.05
2018-11-14T20:28:20.673Z,5.07
2018-11-14T20:33:22.984Z,5.05
2018-11-14T20:38:25.275Z,5.06
2018-11-14T20:43:27.688Z,5.06
2018-11-14T20:48:30.028Z,5.09
2018-11-14T20:53:32.394Z,5.08
2018-11-14T20:58:34.716Z,5.06
2018-11-14T21:03:36.986Z,5.03
2018-11-14T21:08:39.397Z,5.00
2018-11-14T21:13:41.884Z,4.98
2018-11-14T21:18:44.228Z,4.94
2018-11-14T21:23:46.545Z,4.84
2018-11-14T21:28:48.926Z,4.81
2018-11-14T21:33:51.269Z,4.77
2018-11-14T21:38:53.623Z,4.70
2018-11-14T21:43:56.015Z,4.59
2018-11-14T21:48:58.290Z,4.51
2018-11-14T21:54:00.574Z,4.49
2018-11-14T21:59:02.857Z,4.44
2018-11-14T22:04:05.476Z,4.40
2018-11-14T22:09:09.343Z,4.27
2018-11-14T22:14:11.732Z,4.26
2018-11-14T22:19:14.094Z,4.20
2018-11-14T22:24:16.439Z,4.15
2018-11-14T22:29:18.727Z,4.07
2018-11-14T22:34:21.040Z,3.97
2018-11-14T22:39:23.355Z,3.91
2018-11-14T22:44:25.784Z,3.85
2018-11-14T22:49:28.075Z,3.81
2018-11-14T22:54:30.749Z,3.75
2018-11-14T22:59:33.056Z,3.72
2018-11-14T23:04:35.352Z,3.64
2018-11-14T23:09:37.768Z,3.55
2018-11-14T23:14:40.112Z,3.52
2018-11-14T23:19:42.400Z,3.37
2018-11-14T23:24:44.706Z,3.29
2018-11-14T23:29:46.995Z,3.31
2018-11-14T23:34:55.047Z,3.26
2018-11-14T23:39:57.414Z,3.23
2018-11-14T23:44:59.740Z,3.18
2018-11-14T23:50:02.045Z,3.13
2018-11-14T23:55:04.442Z,3.14
